sensor_id;sensor_type;location;lat;lon;timestamp;P1;durP1;ratioP1;P2;durP2;ratioP2
18623;SDS011;9441;51.420;7.036;2022-07-01T00:00:42;29.45;;;15.60;;
18623;SDS011;9441;51.420;7.036;2022-07-01T00:02:03;31.42;;;16.75;;
18623;SDS011;9441;51.420;7.036;2022-07-01T00:03:24;31.10;;;16.35;;
18623;SDS011;9441;51.420;7.036;2022-07-01T00:04:26;32.88;;;16.85;;
18623;SDS011;9441;51.420;7.036;2022-07-01T00:05:47;28.92;;;16.05;;
18623;SDS011;9441;51.420;7.036;2022-07-01T00:06:49;30.30;;;16.42;;
18623;SDS011;9441;51.420;7.036;2022-07-01T00:07:51;29.73;;;16.23;;
18623;SDS011;9441;51.420;7.036;2022-07-01T00:08:53;35.47;;;16.90;;
18623;SDS011;9441;51.420;7.036;2022-07-01T00:09:56;33.83;;;18.35;;
18623;SDS011;9441;51.420;7.036;2022-07-01T00:10:58;40.75;;;17.67;;
18623;SDS011;9441;51.420;7.036;2022-07-01T00:11:59;38.30;;;17.27;;
18623;SDS011;9441;51.420;7.036;2022-07-01T00:13:01;38.95;;;18.45;;
18623;SDS011;9441;51.420;7.036;2022-07-01T00:14:02;40.80;;;18.60;;
18623;SDS011;9441;51.420;7.036;2022-07-01T00:15:05;42.30;;;19.25;;
18623;SDS011;9441;51.420;7.036;2022-07-01T00:16:06;42.85;;;18.73;;
18623;SDS011;9441;51.420;7.036;2022-07-01T00:17:08;45.13;;;20.77;;
18623;SDS011;9441;51.420;7.036;2022-07-01T00:18:09;45.47;;;20.77;;
18623;SDS011;9441;51.420;7.036;2022-07-01T00:19:12;45.05;;;20.55;;
18623;SDS011;9441;51.420;7.036;2022-07-01T00:20:14;46.97;;;20.70;;
18623;SDS011;9441;51.420;7.036;2022-07-01T00:21:16;41.83;;;20.58;;
18623;SDS011;9441;51.420;7.036;2022-07-01T00:22:17;45.75;;;19.92;;
18623;SDS011;9441;51.420;7.036;2022-07-01T00:23:20;40.80;;;20.67;;
18623;SDS011;9441;51.420;7.036;2022-07-01T00:24:22;39.45;;;20.35;;
18623;SDS011;9441;51.420;7.036;2022-07-01T00:25:24;43.80;;;21.20;;
18623;SDS011;9441;51.420;7.036;2022-07-01T00:26:25;46.20;;;21.67;;
18623;SDS011;9441;51.420;7.036;2022-07-01T00:27:28;45.08;;;21.23;;
18623;SDS011;9441;51.420;7.036;2022-07-01T00:28:29;47.78;;;21.90;;
18623;SDS011;9441;51.420;7.036;2022-07-01T00:29:31;48.47;;;21.38;;
18623;SDS011;9441;51.420;7.036;2022-07-01T00:30:34;47.22;;;21.10;;
18623;SDS011;9441;51.420;7.036;2022-07-01T00:31:36;45.38;;;21.25;;
18623;SDS011;9441;51.420;7.036;2022-07-01T00:32:37;50.40;;;21.27;;
18623;SDS011;9441;51.420;7.036;2022-07-01T00:33:40;45.28;;;21.48;;
18623;SDS011;9441;51.420;7.036;2022-07-01T00:34:41;49.75;;;22.10;;
18623;SDS011;9441;51.420;7.036;2022-07-01T00:35:43;53.47;;;22.35;;
18623;SDS011;9441;51.420;7.036;2022-07-01T00:36:44;54.17;;;22.23;;
18623;SDS011;9441;51.420;7.036;2022-07-01T00:37:46;56.13;;;24.15;;
18623;SDS011;9441;51.420;7.036;2022-07-01T00:38:47;61.53;;;22.90;;
18623;SDS011;9441;51.420;7.036;2022-07-01T00:39:50;49.53;;;22.50;;
18623;SDS011;9441;51.420;7.036;2022-07-01T00:40:52;47.50;;;21.92;;
18623;SDS011;9441;51.420;7.036;2022-07-01T00:41:57;45.40;;;21.90;;
18623;SDS011;9441;51.420;7.036;2022-07-01T00:43:00;46.55;;;22.65;;
18623;SDS011;9441;51.420;7.036;2022-07-01T00:44:02;46.53;;;23.30;;
18623;SDS011;9441;51.420;7.036;2022-07-01T00:45:04;49.42;;;23.58;;
18623;SDS011;9441;51.420;7.036;2022-07-01T00:46:08;48.45;;;23.00;;
18623;SDS011;9441;51.420;7.036;2022-07-01T00:47:10;52.45;;;24.15;;
18623;SDS011;9441;51.420;7.036;2022-07-01T00:48:14;43.47;;;22.35;;
18623;SDS011;9441;51.420;7.036;2022-07-01T00:49:15;44.63;;;22.85;;
18623;SDS011;9441;51.420;7.036;2022-07-01T00:50:18;47.70;;;23.23;;
18623;SDS011;9441;51.420;7.036;2022-07-01T00:51:19;57.10;;;24.13;;
18623;SDS011;9441;51.420;7.036;2022-07-01T00:52:21;57.45;;;24.77;;
18623;SDS011;9441;51.420;7.036;2022-07-01T00:53:22;58.42;;;25.02;;
18623;SDS011;9441;51.420;7.036;2022-07-01T00:54:26;56.72;;;25.73;;
18623;SDS011;9441;51.420;7.036;2022-07-01T00:55:29;48.70;;;25.10;;
18623;SDS011;9441;51.420;7.036;2022-07-01T00:56:31;51.97;;;24.92;;
18623;SDS011;9441;51.420;7.036;2022-07-01T00:57:34;52.28;;;24.17;;
18623;SDS011;9441;51.420;7.036;2022-07-01T00:58:36;70.97;;;26.70;;
18623;SDS011;9441;51.420;7.036;2022-07-01T00:59:39;64.03;;;26.25;;
18623;SDS011;9441;51.420;7.036;2022-07-01T01:00:41;60.10;;;26.17;;
18623;SDS011;9441;51.420;7.036;2022-07-01T01:01:43;48.42;;;24.92;;
18623;SDS011;9441;51.420;7.036;2022-07-01T01:02:45;52.35;;;24.95;;
18623;SDS011;9441;51.420;7.036;2022-07-01T01:03:47;58.72;;;26.55;;
18623;SDS011;9441;51.420;7.036;2022-07-01T01:04:48;62.63;;;26.77;;
18623;SDS011;9441;51.420;7.036;2022-07-01T01:05:51;58.40;;;27.23;;
18623;SDS011;9441;51.420;7.036;2022-07-01T01:06:55;59.97;;;27.23;;
18623;SDS011;9441;51.420;7.036;2022-07-01T01:07:58;53.95;;;27.00;;
18623;SDS011;9441;51.420;7.036;2022-07-01T01:08:59;62.47;;;28.45;;
18623;SDS011;9441;51.420;7.036;2022-07-01T01:10:02;52.17;;;26.73;;
18623;SDS011;9441;51.420;7.036;2022-07-01T01:11:05;55.40;;;26.60;;
18623;SDS011;9441;51.420;7.036;2022-07-01T01:12:08;58.20;;;27.30;;
18623;SDS011;9441;51.420;7.036;2022-07-01T01:13:11;58.33;;;26.23;;
18623;SDS011;9441;51.420;7.036;2022-07-01T01:14:12;51.50;;;26.45;;
18623;SDS011;9441;51.420;7.036;2022-07-01T01:15:17;53.92;;;25.85;;
18623;SDS011;9441;51.420;7.036;2022-07-01T01:16:19;51.92;;;26.02;;
18623;SDS011;9441;51.420;7.036;2022-07-01T01:17:23;50.95;;;26.15;;
18623;SDS011;9441;51.420;7.036;2022-07-01T01:18:24;52.80;;;25.67;;
18623;SDS011;9441;51.420;7.036;2022-07-01T01:19:27;62.47;;;27.45;;
18623;SDS011;9441;51.420;7.036;2022-07-01T01:20:32;55.08;;;25.70;;
18623;SDS011;9441;51.420;7.036;2022-07-01T01:21:34;58.58;;;26.02;;
18623;SDS011;9441;51.420;7.036;2022-07-01T01:22:35;54.17;;;25.73;;
18623;SDS011;9441;51.420;7.036;2022-07-01T01:23:37;50.67;;;24.20;;
18623;SDS011;9441;51.420;7.036;2022-07-01T01:24:39;52.40;;;23.65;;
18623;SDS011;9441;51.420;7.036;2022-07-01T01:25:41;50.33;;;25.15;;
18623;SDS011;9441;51.420;7.036;2022-07-01T01:26:42;42.75;;;23.33;;
18623;SDS011;9441;51.420;7.036;2022-07-01T01:27:44;54.05;;;24.65;;
18623;SDS011;9441;51.420;7.036;2022-07-01T01:28:46;46.13;;;23.80;;
18623;SDS011;9441;51.420;7.036;2022-07-01T01:29:48;50.33;;;22.95;;
18623;SDS011;9441;51.420;7.036;2022-07-01T01:30:49;52.78;;;23.77;;
18623;SDS011;9441;51.420;7.036;2022-07-01T01:31:52;42.08;;;21.80;;
18623;SDS011;9441;51.420;7.036;2022-07-01T01:32:53;43.00;;;22.88;;
18623;SDS011;9441;51.420;7.036;2022-07-01T01:33:55;45.13;;;21.93;;
18623;SDS011;9441;51.420;7.036;2022-07-01T01:34:57;50.08;;;23.52;;
18623;SDS011;9441;51.420;7.036;2022-07-01T01:36:00;42.78;;;21.95;;
18623;SDS011;9441;51.420;7.036;2022-07-01T01:37:01;50.33;;;23.15;;
18623;SDS011;9441;51.420;7.036;2022-07-01T01:38:04;48.35;;;22.33;;
18623;SDS011;9441;51.420;7.036;2022-07-01T01:39:05;39.70;;;21.35;;
18623;SDS011;9441;51.420;7.036;2022-07-01T01:40:10;36.63;;;20.75;;
18623;SDS011;9441;51.420;7.036;2022-07-01T01:41:14;41.78;;;21.77;;
18623;SDS011;9441;51.420;7.036;2022-07-01T01:42:16;40.63;;;21.10;;
18623;SDS011;9441;51.420;7.036;2022-07-01T01:43:17;39.03;;;20.98;;
18623;SDS011;9441;51.420;7.036;2022-07-01T01:44:19;44.45;;;20.92;;
18623;SDS011;9441;51.420;7.036;2022-07-01T01:45:20;43.00;;;20.45;;
18623;SDS011;9441;51.420;7.036;2022-07-01T01:46:22;36.45;;;20.60;;
18623;SDS011;9441;51.420;7.036;2022-07-01T01:47:23;40.92;;;20.17;;
18623;SDS011;9441;51.420;7.036;2022-07-01T01:48:26;35.80;;;19.23;;
18623;SDS011;9441;51.420;7.036;2022-07-01T01:49:27;34.95;;;19.50;;
18623;SDS011;9441;51.420;7.036;2022-07-01T01:50:29;40.60;;;19.85;;
18623;SDS011;9441;51.420;7.036;2022-07-01T01:51:32;36.75;;;20.00;;
18623;SDS011;9441;51.420;7.036;2022-07-01T01:52:34;34.73;;;19.83;;
18623;SDS011;9441;51.420;7.036;2022-07-01T01:53:35;37.65;;;19.38;;
18623;SDS011;9441;51.420;7.036;2022-07-01T01:54:37;45.42;;;19.13;;
18623;SDS011;9441;51.420;7.036;2022-07-01T01:55:38;37.05;;;19.50;;
18623;SDS011;9441;51.420;7.036;2022-07-01T01:56:41;42.78;;;20.90;;
18623;SDS011;9441;51.420;7.036;2022-07-01T01:57:42;35.00;;;19.45;;
18623;SDS011;9441;51.420;7.036;2022-07-01T01:58:44;38.00;;;19.63;;
18623;SDS011;9441;51.420;7.036;2022-07-01T01:59:46;33.50;;;19.08;;
18623;SDS011;9441;51.420;7.036;2022-07-01T02:00:48;36.95;;;19.33;;
18623;SDS011;9441;51.420;7.036;2022-07-01T02:01:49;39.67;;;19.73;;
18623;SDS011;9441;51.420;7.036;2022-07-01T02:02:54;36.92;;;19.45;;
18623;SDS011;9441;51.420;7.036;2022-07-01T02:03:55;35.90;;;18.95;;
18623;SDS011;9441;51.420;7.036;2022-07-01T02:04:59;40.22;;;18.92;;
18623;SDS011;9441;51.420;7.036;2022-07-01T02:06:00;33.10;;;17.58;;
18623;SDS011;9441;51.420;7.036;2022-07-01T02:07:04;30.53;;;17.63;;
18623;SDS011;9441;51.420;7.036;2022-07-01T02:08:05;33.90;;;17.83;;
18623;SDS011;9441;51.420;7.036;2022-07-01T02:09:07;40.67;;;18.45;;
18623;SDS011;9441;51.420;7.036;2022-07-01T02:10:09;35.83;;;17.38;;
18623;SDS011;9441;51.420;7.036;2022-07-01T02:11:11;38.57;;;18.50;;
18623;SDS011;9441;51.420;7.036;2022-07-01T02:12:12;36.58;;;17.80;;
18623;SDS011;9441;51.420;7.036;2022-07-01T02:13:14;32.73;;;17.27;;
18623;SDS011;9441;51.420;7.036;2022-07-01T02:14:15;31.73;;;16.20;;
18623;SDS011;9441;51.420;7.036;2022-07-01T02:15:17;36.23;;;17.27;;
18623;SDS011;9441;51.420;7.036;2022-07-01T02:16:19;37.87;;;17.47;;
18623;SDS011;9441;51.420;7.036;2022-07-01T02:17:21;33.60;;;17.20;;
18623;SDS011;9441;51.420;7.036;2022-07-01T02:18:22;28.23;;;15.73;;
18623;SDS011;9441;51.420;7.036;2022-07-01T02:19:24;34.40;;;16.57;;
18623;SDS011;9441;51.420;7.036;2022-07-01T02:20:26;33.13;;;15.67;;
18623;SDS011;9441;51.420;7.036;2022-07-01T02:21:28;31.53;;;16.50;;
18623;SDS011;9441;51.420;7.036;2022-07-01T02:22:31;30.67;;;15.53;;
18623;SDS011;9441;51.420;7.036;2022-07-01T02:23:32;33.70;;;16.80;;
18623;SDS011;9441;51.420;7.036;2022-07-01T02:24:34;36.67;;;16.07;;
18623;SDS011;9441;51.420;7.036;2022-07-01T02:25:35;33.80;;;15.73;;
18623;SDS011;9441;51.420;7.036;2022-07-01T02:26:37;29.87;;;14.73;;
18623;SDS011;9441;51.420;7.036;2022-07-01T02:27:39;35.20;;;17.00;;
18623;SDS011;9441;51.420;7.036;2022-07-01T02:28:41;32.53;;;15.67;;
18623;SDS011;9441;51.420;7.036;2022-07-01T02:29:42;36.83;;;15.57;;
18623;SDS011;9441;51.420;7.036;2022-07-01T02:30:44;37.13;;;15.57;;
18623;SDS011;9441;51.420;7.036;2022-07-01T02:31:45;38.63;;;16.47;;
18623;SDS011;9441;51.420;7.036;2022-07-01T02:32:47;34.70;;;16.53;;
18623;SDS011;9441;51.420;7.036;2022-07-01T02:33:48;33.33;;;15.70;;
18623;SDS011;9441;51.420;7.036;2022-07-01T02:34:50;34.80;;;16.10;;
18623;SDS011;9441;51.420;7.036;2022-07-01T02:35:51;34.93;;;15.17;;
18623;SDS011;9441;51.420;7.036;2022-07-01T02:36:53;37.20;;;16.13;;
18623;SDS011;9441;51.420;7.036;2022-07-01T02:37:57;35.07;;;15.87;;
18623;SDS011;9441;51.420;7.036;2022-07-01T02:38:59;31.77;;;15.80;;
18623;SDS011;9441;51.420;7.036;2022-07-01T02:40:00;40.37;;;16.47;;
18623;SDS011;9441;51.420;7.036;2022-07-01T02:41:02;31.73;;;15.87;;
18623;SDS011;9441;51.420;7.036;2022-07-01T02:42:04;34.20;;;16.13;;
18623;SDS011;9441;51.420;7.036;2022-07-01T02:43:26;33.60;;;15.47;;
18623;SDS011;9441;51.420;7.036;2022-07-01T02:44:27;35.13;;;15.60;;
18623;SDS011;9441;51.420;7.036;2022-07-01T02:45:29;32.80;;;16.20;;
18623;SDS011;9441;51.420;7.036;2022-07-01T02:46:30;34.00;;;15.53;;
18623;SDS011;9441;51.420;7.036;2022-07-01T02:47:32;38.90;;;15.50;;
18623;SDS011;9441;51.420;7.036;2022-07-01T02:48:34;35.37;;;15.67;;
18623;SDS011;9441;51.420;7.036;2022-07-01T02:49:36;35.57;;;15.40;;
18623;SDS011;9441;51.420;7.036;2022-07-01T02:50:39;38.60;;;15.70;;
18623;SDS011;9441;51.420;7.036;2022-07-01T02:51:41;35.80;;;15.40;;
18623;SDS011;9441;51.420;7.036;2022-07-01T02:52:42;38.67;;;15.73;;
18623;SDS011;9441;51.420;7.036;2022-07-01T02:53:46;36.77;;;15.03;;
18623;SDS011;9441;51.420;7.036;2022-07-01T02:54:47;34.33;;;15.53;;
18623;SDS011;9441;51.420;7.036;2022-07-01T02:55:49;32.70;;;15.30;;
18623;SDS011;9441;51.420;7.036;2022-07-01T02:56:50;33.47;;;14.43;;
18623;SDS011;9441;51.420;7.036;2022-07-01T02:57:52;31.03;;;14.03;;
18623;SDS011;9441;51.420;7.036;2022-07-01T02:58:53;35.30;;;14.90;;
18623;SDS011;9441;51.420;7.036;2022-07-01T02:59:55;32.50;;;15.17;;
18623;SDS011;9441;51.420;7.036;2022-07-01T03:00:57;32.57;;;15.07;;
18623;SDS011;9441;51.420;7.036;2022-07-01T03:01:59;31.97;;;14.90;;
18623;SDS011;9441;51.420;7.036;2022-07-01T03:03:00;32.70;;;14.20;;
18623;SDS011;9441;51.420;7.036;2022-07-01T03:04:02;29.50;;;13.97;;
18623;SDS011;9441;51.420;7.036;2022-07-01T03:05:04;37.63;;;15.13;;
18623;SDS011;9441;51.420;7.036;2022-07-01T03:06:07;34.70;;;16.10;;
18623;SDS011;9441;51.420;7.036;2022-07-01T03:07:08;38.33;;;15.83;;
18623;SDS011;9441;51.420;7.036;2022-07-01T03:08:10;31.80;;;15.60;;
18623;SDS011;9441;51.420;7.036;2022-07-01T03:09:12;40.60;;;16.53;;
18623;SDS011;9441;51.420;7.036;2022-07-01T03:10:14;41.37;;;16.17;;
18623;SDS011;9441;51.420;7.036;2022-07-01T03:11:15;42.30;;;16.90;;
18623;SDS011;9441;51.420;7.036;2022-07-01T03:12:18;39.37;;;16.10;;
18623;SDS011;9441;51.420;7.036;2022-07-01T03:13:25;39.70;;;16.03;;
18623;SDS011;9441;51.420;7.036;2022-07-01T03:14:27;39.23;;;16.27;;
18623;SDS011;9441;51.420;7.036;2022-07-01T03:15:28;33.73;;;15.83;;
18623;SDS011;9441;51.420;7.036;2022-07-01T03:16:30;37.30;;;16.20;;
18623;SDS011;9441;51.420;7.036;2022-07-01T03:17:31;39.07;;;17.03;;
18623;SDS011;9441;51.420;7.036;2022-07-01T03:18:35;36.30;;;17.43;;
18623;SDS011;9441;51.420;7.036;2022-07-01T03:19:36;39.67;;;16.73;;
18623;SDS011;9441;51.420;7.036;2022-07-01T03:20:38;38.47;;;16.83;;
18623;SDS011;9441;51.420;7.036;2022-07-01T03:21:40;33.40;;;15.77;;
18623;SDS011;9441;51.420;7.036;2022-07-01T03:22:42;44.33;;;16.77;;
18623;SDS011;9441;51.420;7.036;2022-07-01T03:23:45;36.97;;;16.57;;
18623;SDS011;9441;51.420;7.036;2022-07-01T03:24:47;39.53;;;16.93;;
18623;SDS011;9441;51.420;7.036;2022-07-01T03:25:49;46.37;;;16.57;;
18623;SDS011;9441;51.420;7.036;2022-07-01T03:26:51;35.57;;;15.80;;
18623;SDS011;9441;51.420;7.036;2022-07-01T03:27:52;36.00;;;16.03;;
18623;SDS011;9441;51.420;7.036;2022-07-01T03:28:55;38.23;;;16.27;;
18623;SDS011;9441;51.420;7.036;2022-07-01T03:29:56;37.47;;;16.27;;
18623;SDS011;9441;51.420;7.036;2022-07-01T03:30:58;35.13;;;16.60;;
18623;SDS011;9441;51.420;7.036;2022-07-01T03:31:59;36.60;;;17.30;;
18623;SDS011;9441;51.420;7.036;2022-07-01T03:33:01;40.67;;;16.90;;
18623;SDS011;9441;51.420;7.036;2022-07-01T03:34:03;38.40;;;15.70;;
18623;SDS011;9441;51.420;7.036;2022-07-01T03:35:04;35.27;;;16.13;;
18623;SDS011;9441;51.420;7.036;2022-07-01T03:36:32;36.83;;;17.43;;
18623;SDS011;9441;51.420;7.036;2022-07-01T03:37:36;31.27;;;16.57;;
18623;SDS011;9441;51.420;7.036;2022-07-01T03:38:37;38.20;;;17.40;;
18623;SDS011;9441;51.420;7.036;2022-07-01T03:39:40;43.20;;;17.60;;
18623;SDS011;9441;51.420;7.036;2022-07-01T03:40:43;36.47;;;16.73;;
18623;SDS011;9441;51.420;7.036;2022-07-01T03:41:45;38.10;;;17.23;;
18623;SDS011;9441;51.420;7.036;2022-07-01T03:42:46;40.17;;;17.40;;
18623;SDS011;9441;51.420;7.036;2022-07-01T03:43:48;34.67;;;17.60;;
18623;SDS011;9441;51.420;7.036;2022-07-01T03:44:50;32.77;;;16.63;;
18623;SDS011;9441;51.420;7.036;2022-07-01T03:45:51;32.80;;;16.70;;
18623;SDS011;9441;51.420;7.036;2022-07-01T03:46:53;37.47;;;17.27;;
18623;SDS011;9441;51.420;7.036;2022-07-01T03:47:55;33.80;;;16.40;;
18623;SDS011;9441;51.420;7.036;2022-07-01T03:48:57;31.20;;;16.37;;
18623;SDS011;9441;51.420;7.036;2022-07-01T03:49:58;44.73;;;17.03;;
18623;SDS011;9441;51.420;7.036;2022-07-01T03:51:00;36.27;;;17.37;;
18623;SDS011;9441;51.420;7.036;2022-07-01T03:52:02;35.10;;;17.10;;
18623;SDS011;9441;51.420;7.036;2022-07-01T03:53:04;35.00;;;16.90;;
18623;SDS011;9441;51.420;7.036;2022-07-01T03:54:24;35.57;;;16.57;;
18623;SDS011;9441;51.420;7.036;2022-07-01T03:55:32;34.13;;;16.20;;
18623;SDS011;9441;51.420;7.036;2022-07-01T03:56:35;32.93;;;16.47;;
18623;SDS011;9441;51.420;7.036;2022-07-01T03:57:37;38.20;;;16.33;;
18623;SDS011;9441;51.420;7.036;2022-07-01T03:58:39;33.13;;;16.73;;
18623;SDS011;9441;51.420;7.036;2022-07-01T03:59:41;35.33;;;16.30;;
18623;SDS011;9441;51.420;7.036;2022-07-01T04:00:42;30.93;;;16.33;;
18623;SDS011;9441;51.420;7.036;2022-07-01T04:01:44;35.13;;;16.00;;
18623;SDS011;9441;51.420;7.036;2022-07-01T04:02:45;32.60;;;16.40;;
18623;SDS011;9441;51.420;7.036;2022-07-01T04:03:49;31.80;;;16.40;;
18623;SDS011;9441;51.420;7.036;2022-07-01T04:04:50;30.93;;;15.57;;
18623;SDS011;9441;51.420;7.036;2022-07-01T04:05:52;28.63;;;15.57;;
18623;SDS011;9441;51.420;7.036;2022-07-01T04:06:54;33.77;;;16.30;;
18623;SDS011;9441;51.420;7.036;2022-07-01T04:07:58;33.37;;;16.37;;
18623;SDS011;9441;51.420;7.036;2022-07-01T04:08:59;31.77;;;15.83;;
18623;SDS011;9441;51.420;7.036;2022-07-01T04:10:02;28.90;;;14.83;;
18623;SDS011;9441;51.420;7.036;2022-07-01T04:11:04;30.57;;;15.27;;
18623;SDS011;9441;51.420;7.036;2022-07-01T04:12:10;29.23;;;15.00;;
18623;SDS011;9441;51.420;7.036;2022-07-01T04:13:12;27.47;;;15.67;;
18623;SDS011;9441;51.420;7.036;2022-07-01T04:14:14;27.77;;;15.23;;
18623;SDS011;9441;51.420;7.036;2022-07-01T04:15:17;24.27;;;14.13;;
18623;SDS011;9441;51.420;7.036;2022-07-01T04:16:19;31.10;;;15.33;;
18623;SDS011;9441;51.420;7.036;2022-07-01T04:17:21;34.20;;;14.70;;
18623;SDS011;9441;51.420;7.036;2022-07-01T04:18:23;26.30;;;15.00;;
18623;SDS011;9441;51.420;7.036;2022-07-01T04:19:24;33.75;;;15.50;;
18623;SDS011;9441;51.420;7.036;2022-07-01T04:20:27;25.93;;;16.07;;
18623;SDS011;9441;51.420;7.036;2022-07-01T04:21:28;28.33;;;14.63;;
18623;SDS011;9441;51.420;7.036;2022-07-01T04:22:47;25.30;;;14.97;;
18623;SDS011;9441;51.420;7.036;2022-07-01T04:23:49;31.67;;;14.97;;
18623;SDS011;9441;51.420;7.036;2022-07-01T04:24:51;30.13;;;14.40;;
18623;SDS011;9441;51.420;7.036;2022-07-01T04:25:53;24.77;;;14.70;;
18623;SDS011;9441;51.420;7.036;2022-07-01T04:26:54;29.33;;;15.83;;
18623;SDS011;9441;51.420;7.036;2022-07-01T04:27:57;26.07;;;14.87;;
18623;SDS011;9441;51.420;7.036;2022-07-01T04:28:59;30.17;;;14.73;;
18623;SDS011;9441;51.420;7.036;2022-07-01T04:30:01;27.87;;;14.90;;
18623;SDS011;9441;51.420;7.036;2022-07-01T04:31:04;25.40;;;14.13;;
18623;SDS011;9441;51.420;7.036;2022-07-01T04:32:05;28.40;;;15.60;;
18623;SDS011;9441;51.420;7.036;2022-07-01T04:33:08;29.07;;;14.93;;
18623;SDS011;9441;51.420;7.036;2022-07-01T04:34:09;31.27;;;15.63;;
18623;SDS011;9441;51.420;7.036;2022-07-01T04:35:11;27.70;;;15.73;;
18623;SDS011;9441;51.420;7.036;2022-07-01T04:36:14;27.02;;;14.38;;
18623;SDS011;9441;51.420;7.036;2022-07-01T04:37:16;24.42;;;14.55;;
18623;SDS011;9441;51.420;7.036;2022-07-01T04:38:19;27.33;;;15.13;;
18623;SDS011;9441;51.420;7.036;2022-07-01T04:39:20;29.07;;;14.77;;
18623;SDS011;9441;51.420;7.036;2022-07-01T04:40:23;25.27;;;14.05;;
18623;SDS011;9441;51.420;7.036;2022-07-01T04:41:24;25.92;;;14.73;;
18623;SDS011;9441;51.420;7.036;2022-07-01T04:42:44;22.37;;;13.97;;
18623;SDS011;9441;51.420;7.036;2022-07-01T04:43:48;25.20;;;13.97;;
18623;SDS011;9441;51.420;7.036;2022-07-01T04:44:49;28.07;;;14.77;;
18623;SDS011;9441;51.420;7.036;2022-07-01T04:45:51;27.80;;;14.15;;
18623;SDS011;9441;51.420;7.036;2022-07-01T04:46:52;27.30;;;15.32;;
18623;SDS011;9441;51.420;7.036;2022-07-01T04:47:54;25.55;;;14.82;;
18623;SDS011;9441;51.420;7.036;2022-07-01T04:48:56;28.60;;;14.07;;
18623;SDS011;9441;51.420;7.036;2022-07-01T04:49:57;25.95;;;14.52;;
18623;SDS011;9441;51.420;7.036;2022-07-01T04:51:01;27.88;;;15.07;;
18623;SDS011;9441;51.420;7.036;2022-07-01T04:52:03;25.13;;;14.40;;
18623;SDS011;9441;51.420;7.036;2022-07-01T04:53:05;24.50;;;14.53;;
18623;SDS011;9441;51.420;7.036;2022-07-01T04:54:06;25.48;;;14.40;;
18623;SDS011;9441;51.420;7.036;2022-07-01T04:55:10;25.05;;;14.15;;
18623;SDS011;9441;51.420;7.036;2022-07-01T04:56:12;23.88;;;14.00;;
18623;SDS011;9441;51.420;7.036;2022-07-01T04:57:13;23.20;;;13.97;;
18623;SDS011;9441;51.420;7.036;2022-07-01T04:58:15;25.23;;;13.40;;
18623;SDS011;9441;51.420;7.036;2022-07-01T04:59:18;25.00;;;13.90;;
18623;SDS011;9441;51.420;7.036;2022-07-01T05:00:20;27.00;;;12.83;;
18623;SDS011;9441;51.420;7.036;2022-07-01T05:01:21;25.23;;;12.70;;
18623;SDS011;9441;51.420;7.036;2022-07-01T05:02:24;24.37;;;13.30;;
18623;SDS011;9441;51.420;7.036;2022-07-01T05:03:26;25.67;;;13.10;;
18623;SDS011;9441;51.420;7.036;2022-07-01T05:04:27;21.80;;;12.33;;
18623;SDS011;9441;51.420;7.036;2022-07-01T05:05:29;22.57;;;12.03;;
18623;SDS011;9441;51.420;7.036;2022-07-01T05:06:31;25.25;;;13.50;;
18623;SDS011;9441;51.420;7.036;2022-07-01T05:07:34;24.90;;;11.67;;
18623;SDS011;9441;51.420;7.036;2022-07-01T05:08:36;21.20;;;11.53;;
18623;SDS011;9441;51.420;7.036;2022-07-01T05:09:37;19.80;;;11.63;;
18623;SDS011;9441;51.420;7.036;2022-07-01T05:10:39;21.40;;;11.90;;
18623;SDS011;9441;51.420;7.036;2022-07-01T05:11:40;20.87;;;11.80;;
18623;SDS011;9441;51.420;7.036;2022-07-01T05:12:42;18.90;;;10.63;;
18623;SDS011;9441;51.420;7.036;2022-07-01T05:13:44;19.60;;;11.17;;
18623;SDS011;9441;51.420;7.036;2022-07-01T05:14:47;20.80;;;10.50;;
18623;SDS011;9441;51.420;7.036;2022-07-01T05:15:48;18.23;;;10.43;;
18623;SDS011;9441;51.420;7.036;2022-07-01T05:16:51;20.70;;;11.03;;
18623;SDS011;9441;51.420;7.036;2022-07-01T05:17:53;18.90;;;10.57;;
18623;SDS011;9441;51.420;7.036;2022-07-01T05:19:12;20.50;;;10.57;;
18623;SDS011;9441;51.420;7.036;2022-07-01T05:20:32;21.47;;;10.00;;
18623;SDS011;9441;51.420;7.036;2022-07-01T05:21:52;24.43;;;10.17;;
18623;SDS011;9441;51.420;7.036;2022-07-01T05:23:00;17.77;;;10.10;;
18623;SDS011;9441;51.420;7.036;2022-07-01T05:24:01;15.03;;;10.73;;
18623;SDS011;9441;51.420;7.036;2022-07-01T05:25:03;15.90;;;10.47;;
18623;SDS011;9441;51.420;7.036;2022-07-01T05:26:06;17.97;;;9.83;;
18623;SDS011;9441;51.420;7.036;2022-07-01T05:27:07;24.10;;;10.30;;
18623;SDS011;9441;51.420;7.036;2022-07-01T05:28:09;16.53;;;9.73;;
18623;SDS011;9441;51.420;7.036;2022-07-01T05:29:10;16.40;;;8.77;;
18623;SDS011;9441;51.420;7.036;2022-07-01T05:30:14;15.17;;;9.27;;
18623;SDS011;9441;51.420;7.036;2022-07-01T05:31:16;16.35;;;9.07;;
18623;SDS011;9441;51.420;7.036;2022-07-01T05:32:17;20.40;;;9.70;;
18623;SDS011;9441;51.420;7.036;2022-07-01T05:33:19;17.50;;;9.07;;
18623;SDS011;9441;51.420;7.036;2022-07-01T05:34:21;20.20;;;9.00;;
18623;SDS011;9441;51.420;7.036;2022-07-01T05:35:24;15.93;;;8.70;;
18623;SDS011;9441;51.420;7.036;2022-07-01T05:36:25;14.30;;;8.70;;
18623;SDS011;9441;51.420;7.036;2022-07-01T05:37:27;15.73;;;8.93;;
18623;SDS011;9441;51.420;7.036;2022-07-01T05:38:29;19.83;;;9.00;;
18623;SDS011;9441;51.420;7.036;2022-07-01T05:39:30;17.55;;;8.32;;
18623;SDS011;9441;51.420;7.036;2022-07-01T05:40:32;16.13;;;7.93;;
18623;SDS011;9441;51.420;7.036;2022-07-01T05:41:33;18.50;;;8.60;;
18623;SDS011;9441;51.420;7.036;2022-07-01T05:42:36;15.70;;;8.93;;
18623;SDS011;9441;51.420;7.036;2022-07-01T05:43:38;20.40;;;8.80;;
18623;SDS011;9441;51.420;7.036;2022-07-01T05:44:40;14.15;;;8.25;;
18623;SDS011;9441;51.420;7.036;2022-07-01T05:45:43;16.50;;;8.55;;
18623;SDS011;9441;51.420;7.036;2022-07-01T05:46:44;16.02;;;8.43;;
18623;SDS011;9441;51.420;7.036;2022-07-01T05:47:46;13.77;;;8.57;;
18623;SDS011;9441;51.420;7.036;2022-07-01T05:48:47;17.15;;;9.00;;
18623;SDS011;9441;51.420;7.036;2022-07-01T05:49:49;16.67;;;8.50;;
18623;SDS011;9441;51.420;7.036;2022-07-01T05:50:52;17.70;;;8.83;;
18623;SDS011;9441;51.420;7.036;2022-07-01T05:51:53;15.57;;;9.13;;
18623;SDS011;9441;51.420;7.036;2022-07-01T05:52:55;15.97;;;8.80;;
18623;SDS011;9441;51.420;7.036;2022-07-01T05:53:56;14.37;;;9.67;;
18623;SDS011;9441;51.420;7.036;2022-07-01T05:54:58;18.43;;;9.17;;
18623;SDS011;9441;51.420;7.036;2022-07-01T05:55:59;15.30;;;9.43;;
18623;SDS011;9441;51.420;7.036;2022-07-01T05:57:01;19.90;;;9.68;;
18623;SDS011;9441;51.420;7.036;2022-07-01T05:58:03;19.98;;;9.10;;
18623;SDS011;9441;51.420;7.036;2022-07-01T05:59:06;12.33;;;9.30;;
18623;SDS011;9441;51.420;7.036;2022-07-01T06:00:09;13.77;;;9.37;;
18623;SDS011;9441;51.420;7.036;2022-07-01T06:01:15;15.37;;;9.40;;
18623;SDS011;9441;51.420;7.036;2022-07-01T06:02:17;15.97;;;9.03;;
18623;SDS011;9441;51.420;7.036;2022-07-01T06:03:19;17.13;;;10.00;;
18623;SDS011;9441;51.420;7.036;2022-07-01T06:04:20;19.63;;;9.10;;
18623;SDS011;9441;51.420;7.036;2022-07-01T06:05:22;20.37;;;10.00;;
18623;SDS011;9441;51.420;7.036;2022-07-01T06:06:23;16.90;;;9.90;;
18623;SDS011;9441;51.420;7.036;2022-07-01T06:07:25;16.33;;;9.70;;
18623;SDS011;9441;51.420;7.036;2022-07-01T06:08:26;14.87;;;9.60;;
18623;SDS011;9441;51.420;7.036;2022-07-01T06:09:29;14.17;;;10.07;;
18623;SDS011;9441;51.420;7.036;2022-07-01T06:10:30;13.80;;;10.40;;
18623;SDS011;9441;51.420;7.036;2022-07-01T06:11:32;18.63;;;10.73;;
18623;SDS011;9441;51.420;7.036;2022-07-01T06:12:34;16.63;;;10.93;;